Observations for Trim Market St
| Time | AQI | Temp °C | Hum % | Pres Pa | CO μg/m³ | H₂S μg/m³ | NO μg/m³ | NO₂ μg/m³ | O₃ μg/m³ | SO₂ μg/m³ | PM1 μg/m³ | PM2.5 μg/m³ | PM10 μg/m³ |
|---|---|---|---|---|---|---|---|---|---|---|---|---|---|
| Saturday 11 July 2026 | |||||||||||||
| 17:57 | 1 | 29.5 | 46 | 55,788 | 0 | 20.72 | 0 | 20.67 | 25.92 | 0 | 4.99 | 8.34 | 12.14 |
| 17:55 | 1 | 29.6 | 46 | 55,859 | 0 | 21.22 | 0 | 16.98 | 25.13 | 0 | 4.28 | 7.32 | 9.07 |
| 17:53 | 1 | 29.6 | 46 | 55,949 | 0 | 25.99 | 0 | 20.09 | 28.62 | 0 | 4.28 | 6.8 | 8.3 |
| 17:46 | 1 | 30.2 | 44 | 56,538 | 0 | 26.34 | 0 | 20.87 | 38.39 | 0 | 4.99 | 7.4 | 9.86 |
| 17:45 | 1 | 30.3 | 44 | 56,882 | 0 | 24.97 | 0 | 18.67 | 34.1 | 0 | 4.99 | 6.88 | 9.09 |
| 17:44 | 1 | 30.3 | 44 | 57,170 | 0 | 25.16 | 0 | 18.59 | 22.8 | 0 | 2.85 | 6.89 | 8.31 |
| 17:43 | 1 | 30.3 | 44 | 57,422 | 0 | 25.24 | 0 | 23.1 | 24.09 | 0 | 2.85 | 6.9 | 8.31 |
| 17:42 | 1 | 30.4 | 44 | 57,756 | 0 | 28.4 | 0 | 21 | 27.91 | 0 | 4.28 | 9.53 | 13.01 |
| 17:41 | 1 | 30.5 | 44 | 57,952 | 0 | 29.44 | 0 | 20.3 | 31.58 | 0 | 4.28 | 8.49 | 11.45 |
| 17:40 | 1 | 30.6 | 43 | 58,540 | 0 | 27.05 | 0 | 19.2 | 37.18 | 0 | 3.56 | 6.41 | 8.31 |
| 17:39 | 1 | 30.6 | 43 | 58,965 | 0 | 28.5 | 0 | 19.11 | 30.69 | 0 | 5.7 | 10.61 | 15.39 |
| 17:38 | 1 | 30.7 | 43 | 59,265 | 0 | 28.42 | 0 | 19.23 | 36.31 | 0 | 2.85 | 7.49 | 9.89 |
| 17:37 | 1 | 30.8 | 43 | 59,768 | 0 | 27.15 | 0 | 18.62 | 35.44 | 0 | 5.7 | 8.55 | 11.47 |
| 17:36 | 1 | 30.9 | 42 | 60,056 | 0 | 30.21 | 0 | 19.52 | 37.09 | 0 | 3.56 | 6.46 | 8.32 |
| 17:35 | 1 | 30.9 | 42 | 60,542 | 0 | 30.18 | 0 | 18.15 | 32.03 | 0 | 2.85 | 6.47 | 7.53 |
| 17:34 | 1 | 31.1 | 42 | 61,046 | 0 | 27.54 | 0 | 16.93 | 31.9 | 0 | 4.28 | 7.54 | 9.11 |
| 17:33 | 1 | 31.2 | 42 | 61,532 | 0 | 27.57 | 0 | 19.44 | 30.35 | 0 | 5.7 | 7.56 | 10.71 |
| 17:30 | 1 | 31.6 | 41 | 62,199 | 0 | 30.67 | 0 | 21.42 | 30.8 | 0 | 4.28 | 7.6 | 9.13 |
| 17:23 | 1 | 32.5 | 39 | 63,968 | 0 | 27.35 | 0 | 14.49 | 43.39 | 0 | 4.99 | 8.24 | 9.96 |
| 17:19 | 1 | 33.2 | 38 | 64,956 | 0 | 27.52 | 0 | 13.15 | 36.29 | 0.14 | 4.28 | 7.78 | 9.17 |